sensor_id;sensor_type;location;lat;lon;timestamp;P1;durP1;ratioP1;P2;durP2;ratioP2
61322;SDS011;47203;48.428;11.974;2023-05-19T00:01:22;8.32;;;2.72;;
61322;SDS011;47203;48.428;11.974;2023-05-19T00:03:29;7.30;;;2.90;;
61322;SDS011;47203;48.428;11.974;2023-05-19T00:05:34;8.38;;;3.08;;
61322;SDS011;47203;48.428;11.974;2023-05-19T00:07:46;5.85;;;3.30;;
61322;SDS011;47203;48.428;11.974;2023-05-19T00:09:55;5.60;;;2.88;;
61322;SDS011;47203;48.428;11.974;2023-05-19T00:12:01;6.88;;;3.22;;
61322;SDS011;47203;48.428;11.974;2023-05-19T00:14:09;4.63;;;2.78;;
61322;SDS011;47203;48.428;11.974;2023-05-19T00:16:15;5.60;;;2.97;;
61322;SDS011;47203;48.428;11.974;2023-05-19T00:18:20;7.35;;;3.00;;
61322;SDS011;47203;48.428;11.974;2023-05-19T00:20:25;3.70;;;2.45;;
61322;SDS011;47203;48.428;11.974;2023-05-19T00:22:31;5.07;;;2.75;;
61322;SDS011;47203;48.428;11.974;2023-05-19T00:24:37;6.70;;;3.03;;
61322;SDS011;47203;48.428;11.974;2023-05-19T00:26:42;4.65;;;2.60;;
61322;SDS011;47203;48.428;11.974;2023-05-19T00:28:47;6.07;;;2.88;;
61322;SDS011;47203;48.428;11.974;2023-05-19T00:30:55;9.82;;;5.47;;
61322;SDS011;47203;48.428;11.974;2023-05-19T00:33:01;7.15;;;3.70;;
61322;SDS011;47203;48.428;11.974;2023-05-19T00:35:07;10.23;;;2.78;;
61322;SDS011;47203;48.428;11.974;2023-05-19T00:37:13;7.13;;;3.45;;
61322;SDS011;47203;48.428;11.974;2023-05-19T00:39:18;6.88;;;2.65;;
61322;SDS011;47203;48.428;11.974;2023-05-19T00:41:23;7.22;;;3.20;;
61322;SDS011;47203;48.428;11.974;2023-05-19T00:43:28;7.07;;;3.13;;
61322;SDS011;47203;48.428;11.974;2023-05-19T00:45:35;5.05;;;2.90;;
61322;SDS011;47203;48.428;11.974;2023-05-19T00:47:42;6.68;;;2.97;;
61322;SDS011;47203;48.428;11.974;2023-05-19T00:49:49;4.68;;;2.80;;
61322;SDS011;47203;48.428;11.974;2023-05-19T00:51:54;8.48;;;3.25;;
61322;SDS011;47203;48.428;11.974;2023-05-19T00:53:59;6.95;;;3.00;;
61322;SDS011;47203;48.428;11.974;2023-05-19T00:56:04;7.38;;;3.13;;
61322;SDS011;47203;48.428;11.974;2023-05-19T00:58:10;4.30;;;2.80;;
61322;SDS011;47203;48.428;11.974;2023-05-19T01:00:16;4.97;;;2.60;;
61322;SDS011;47203;48.428;11.974;2023-05-19T01:02:21;5.10;;;2.22;;
61322;SDS011;47203;48.428;11.974;2023-05-19T01:04:29;5.60;;;2.63;;
61322;SDS011;47203;48.428;11.974;2023-05-19T01:06:36;8.05;;;2.58;;
61322;SDS011;47203;48.428;11.974;2023-05-19T01:08:41;6.07;;;2.72;;
61322;SDS011;47203;48.428;11.974;2023-05-19T01:10:47;11.27;;;3.58;;
61322;SDS011;47203;48.428;11.974;2023-05-19T01:12:52;6.18;;;2.55;;
61322;SDS011;47203;48.428;11.974;2023-05-19T01:14:57;7.57;;;3.47;;
61322;SDS011;47203;48.428;11.974;2023-05-19T01:17:04;5.63;;;2.63;;
61322;SDS011;47203;48.428;11.974;2023-05-19T01:19:20;9.07;;;3.97;;
61322;SDS011;47203;48.428;11.974;2023-05-19T01:24:21;5.95;;;2.60;;
61322;SDS011;47203;48.428;11.974;2023-05-19T01:26:46;5.25;;;3.00;;
61322;SDS011;47203;48.428;11.974;2023-05-19T01:29:27;5.28;;;2.40;;
61322;SDS011;47203;48.428;11.974;2023-05-19T01:31:42;6.45;;;2.60;;
61322;SDS011;47203;48.428;11.974;2023-05-19T01:33:50;4.45;;;2.38;;
61322;SDS011;47203;48.428;11.974;2023-05-19T01:35:57;8.50;;;3.40;;
61322;SDS011;47203;48.428;11.974;2023-05-19T01:38:04;8.05;;;3.05;;
61322;SDS011;47203;48.428;11.974;2023-05-19T01:40:13;7.78;;;3.10;;
61322;SDS011;47203;48.428;11.974;2023-05-19T01:42:19;6.40;;;2.60;;
61322;SDS011;47203;48.428;11.974;2023-05-19T01:44:25;5.20;;;2.33;;
61322;SDS011;47203;48.428;11.974;2023-05-19T01:46:31;6.40;;;2.90;;
61322;SDS011;47203;48.428;11.974;2023-05-19T01:48:40;11.18;;;3.13;;
61322;SDS011;47203;48.428;11.974;2023-05-19T01:50:47;7.55;;;2.90;;
61322;SDS011;47203;48.428;11.974;2023-05-19T01:52:52;7.80;;;2.83;;
61322;SDS011;47203;48.428;11.974;2023-05-19T01:54:57;6.30;;;3.00;;
61322;SDS011;47203;48.428;11.974;2023-05-19T01:57:04;4.55;;;2.90;;
61322;SDS011;47203;48.428;11.974;2023-05-19T01:59:21;6.43;;;3.10;;
61322;SDS011;47203;48.428;11.974;2023-05-19T02:01:36;15.57;;;9.57;;
61322;SDS011;47203;48.428;11.974;2023-05-19T02:03:58;10.88;;;5.15;;
61322;SDS011;47203;48.428;11.974;2023-05-19T02:06:16;7.25;;;3.80;;
61322;SDS011;47203;48.428;11.974;2023-05-19T02:08:29;7.38;;;3.05;;
61322;SDS011;47203;48.428;11.974;2023-05-19T02:10:36;7.63;;;2.60;;
61322;SDS011;47203;48.428;11.974;2023-05-19T02:12:46;8.30;;;3.08;;
61322;SDS011;47203;48.428;11.974;2023-05-19T02:14:58;8.32;;;3.20;;
61322;SDS011;47203;48.428;11.974;2023-05-19T02:17:07;7.05;;;3.42;;
61322;SDS011;47203;48.428;11.974;2023-05-19T02:19:22;6.05;;;3.50;;
61322;SDS011;47203;48.428;11.974;2023-05-19T02:21:29;5.72;;;2.75;;
61322;SDS011;47203;48.428;11.974;2023-05-19T02:23:34;4.85;;;2.60;;
61322;SDS011;47203;48.428;11.974;2023-05-19T02:25:39;7.18;;;2.92;;
61322;SDS011;47203;48.428;11.974;2023-05-19T02:27:44;6.65;;;2.78;;
61322;SDS011;47203;48.428;11.974;2023-05-19T02:29:50;5.32;;;2.85;;
61322;SDS011;47203;48.428;11.974;2023-05-19T02:31:55;10.93;;;3.33;;
61322;SDS011;47203;48.428;11.974;2023-05-19T02:34:00;7.35;;;3.65;;
61322;SDS011;47203;48.428;11.974;2023-05-19T02:36:08;6.15;;;3.25;;
61322;SDS011;47203;48.428;11.974;2023-05-19T02:38:15;5.88;;;2.75;;
61322;SDS011;47203;48.428;11.974;2023-05-19T02:40:20;7.88;;;3.00;;
61322;SDS011;47203;48.428;11.974;2023-05-19T02:42:25;5.13;;;2.72;;
61322;SDS011;47203;48.428;11.974;2023-05-19T02:44:31;7.15;;;3.63;;
61322;SDS011;47203;48.428;11.974;2023-05-19T02:46:36;7.60;;;3.05;;
61322;SDS011;47203;48.428;11.974;2023-05-19T02:48:41;5.65;;;3.00;;
61322;SDS011;47203;48.428;11.974;2023-05-19T02:50:46;7.93;;;3.58;;
61322;SDS011;47203;48.428;11.974;2023-05-19T02:52:54;6.28;;;3.08;;
61322;SDS011;47203;48.428;11.974;2023-05-19T02:54:59;6.75;;;3.45;;
61322;SDS011;47203;48.428;11.974;2023-05-19T02:57:04;7.40;;;3.03;;
61322;SDS011;47203;48.428;11.974;2023-05-19T02:59:10;6.35;;;3.38;;
61322;SDS011;47203;48.428;11.974;2023-05-19T03:01:15;8.88;;;3.58;;
61322;SDS011;47203;48.428;11.974;2023-05-19T03:03:22;7.00;;;3.63;;
61322;SDS011;47203;48.428;11.974;2023-05-19T03:05:27;7.90;;;3.25;;
61322;SDS011;47203;48.428;11.974;2023-05-19T03:07:33;6.05;;;3.03;;
61322;SDS011;47203;48.428;11.974;2023-05-19T03:09:40;6.10;;;3.60;;
61322;SDS011;47203;48.428;11.974;2023-05-19T03:11:46;5.20;;;2.72;;
61322;SDS011;47203;48.428;11.974;2023-05-19T03:13:51;8.13;;;3.70;;
61322;SDS011;47203;48.428;11.974;2023-05-19T03:15:56;5.93;;;3.40;;
61322;SDS011;47203;48.428;11.974;2023-05-19T03:18:03;7.28;;;3.30;;
61322;SDS011;47203;48.428;11.974;2023-05-19T03:20:09;6.90;;;3.50;;
61322;SDS011;47203;48.428;11.974;2023-05-19T03:22:16;5.90;;;3.47;;
61322;SDS011;47203;48.428;11.974;2023-05-19T03:24:22;8.18;;;3.75;;
61322;SDS011;47203;48.428;11.974;2023-05-19T03:26:30;6.78;;;3.00;;
61322;SDS011;47203;48.428;11.974;2023-05-19T03:28:35;7.93;;;3.42;;
61322;SDS011;47203;48.428;11.974;2023-05-19T03:30:39;7.28;;;3.38;;
61322;SDS011;47203;48.428;11.974;2023-05-19T03:32:49;5.75;;;3.08;;
61322;SDS011;47203;48.428;11.974;2023-05-19T03:34:54;6.15;;;3.30;;
61322;SDS011;47203;48.428;11.974;2023-05-19T03:37:00;7.03;;;3.30;;
61322;SDS011;47203;48.428;11.974;2023-05-19T03:39:05;8.77;;;3.50;;
61322;SDS011;47203;48.428;11.974;2023-05-19T03:41:11;6.50;;;3.72;;
61322;SDS011;47203;48.428;11.974;2023-05-19T03:43:18;6.10;;;3.47;;
61322;SDS011;47203;48.428;11.974;2023-05-19T03:45:29;8.27;;;3.38;;
61322;SDS011;47203;48.428;11.974;2023-05-19T03:47:54;7.72;;;3.22;;
61322;SDS011;47203;48.428;11.974;2023-05-19T03:50:32;6.40;;;3.22;;
61322;SDS011;47203;48.428;11.974;2023-05-19T03:52:48;6.38;;;3.72;;
61322;SDS011;47203;48.428;11.974;2023-05-19T03:55:06;5.70;;;3.08;;
61322;SDS011;47203;48.428;11.974;2023-05-19T03:57:13;6.32;;;3.42;;
61322;SDS011;47203;48.428;11.974;2023-05-19T03:59:20;8.15;;;3.45;;
61322;SDS011;47203;48.428;11.974;2023-05-19T04:01:26;8.63;;;3.60;;
61322;SDS011;47203;48.428;11.974;2023-05-19T04:03:32;7.20;;;3.55;;
61322;SDS011;47203;48.428;11.974;2023-05-19T04:05:37;7.78;;;3.55;;
61322;SDS011;47203;48.428;11.974;2023-05-19T04:07:42;8.20;;;4.25;;
61322;SDS011;47203;48.428;11.974;2023-05-19T04:09:47;8.10;;;3.75;;
61322;SDS011;47203;48.428;11.974;2023-05-19T04:11:52;8.88;;;4.15;;
61322;SDS011;47203;48.428;11.974;2023-05-19T04:13:58;9.43;;;3.80;;
61322;SDS011;47203;48.428;11.974;2023-05-19T04:16:06;8.55;;;3.95;;
61322;SDS011;47203;48.428;11.974;2023-05-19T04:18:11;8.98;;;4.03;;
61322;SDS011;47203;48.428;11.974;2023-05-19T04:20:16;5.55;;;3.80;;
61322;SDS011;47203;48.428;11.974;2023-05-19T04:22:21;9.13;;;3.85;;
61322;SDS011;47203;48.428;11.974;2023-05-19T04:24:27;7.72;;;3.83;;
61322;SDS011;47203;48.428;11.974;2023-05-19T04:26:32;6.65;;;3.47;;
61322;SDS011;47203;48.428;11.974;2023-05-19T04:28:39;7.82;;;3.88;;
61322;SDS011;47203;48.428;11.974;2023-05-19T04:30:45;8.52;;;4.30;;
61322;SDS011;47203;48.428;11.974;2023-05-19T04:32:53;6.05;;;3.75;;
61322;SDS011;47203;48.428;11.974;2023-05-19T04:34:59;9.32;;;4.18;;
61322;SDS011;47203;48.428;11.974;2023-05-19T04:37:05;9.00;;;4.30;;
61322;SDS011;47203;48.428;11.974;2023-05-19T04:39:12;6.05;;;3.40;;
61322;SDS011;47203;48.428;11.974;2023-05-19T04:41:19;9.55;;;4.60;;
61322;SDS011;47203;48.428;11.974;2023-05-19T04:43:24;9.18;;;4.15;;
61322;SDS011;47203;48.428;11.974;2023-05-19T04:45:29;7.55;;;3.88;;
61322;SDS011;47203;48.428;11.974;2023-05-19T04:47:36;8.18;;;3.95;;
61322;SDS011;47203;48.428;11.974;2023-05-19T04:49:45;7.40;;;4.10;;
61322;SDS011;47203;48.428;11.974;2023-05-19T04:51:50;9.10;;;4.28;;
61322;SDS011;47203;48.428;11.974;2023-05-19T04:54:01;9.23;;;4.15;;
61322;SDS011;47203;48.428;11.974;2023-05-19T04:56:07;6.30;;;3.85;;
61322;SDS011;47203;48.428;11.974;2023-05-19T04:58:16;7.32;;;4.13;;
61322;SDS011;47203;48.428;11.974;2023-05-19T05:00:22;6.53;;;4.30;;
61322;SDS011;47203;48.428;11.974;2023-05-19T05:02:32;9.00;;;4.03;;
61322;SDS011;47203;48.428;11.974;2023-05-19T05:04:38;7.93;;;4.05;;
61322;SDS011;47203;48.428;11.974;2023-05-19T05:06:47;9.48;;;4.82;;
61322;SDS011;47203;48.428;11.974;2023-05-19T05:08:53;12.43;;;4.45;;
61322;SDS011;47203;48.428;11.974;2023-05-19T05:10:59;7.93;;;4.07;;
61322;SDS011;47203;48.428;11.974;2023-05-19T05:13:05;9.18;;;5.18;;
61322;SDS011;47203;48.428;11.974;2023-05-19T05:15:13;8.85;;;4.18;;
61322;SDS011;47203;48.428;11.974;2023-05-19T05:17:22;7.82;;;4.38;;
61322;SDS011;47203;48.428;11.974;2023-05-19T05:19:29;6.20;;;4.57;;
61322;SDS011;47203;48.428;11.974;2023-05-19T05:21:34;8.52;;;4.20;;
61322;SDS011;47203;48.428;11.974;2023-05-19T05:23:43;8.15;;;4.05;;
61322;SDS011;47203;48.428;11.974;2023-05-19T05:25:49;7.85;;;4.47;;
61322;SDS011;47203;48.428;11.974;2023-05-19T05:27:55;6.43;;;4.60;;
61322;SDS011;47203;48.428;11.974;2023-05-19T05:30:08;7.55;;;4.43;;
61322;SDS011;47203;48.428;11.974;2023-05-19T05:32:13;6.57;;;4.30;;
61322;SDS011;47203;48.428;11.974;2023-05-19T05:34:19;9.75;;;4.88;;
61322;SDS011;47203;48.428;11.974;2023-05-19T05:36:24;11.05;;;5.80;;
61322;SDS011;47203;48.428;11.974;2023-05-19T05:38:30;9.48;;;5.32;;
61322;SDS011;47203;48.428;11.974;2023-05-19T05:40:38;9.38;;;5.00;;
61322;SDS011;47203;48.428;11.974;2023-05-19T05:42:44;8.95;;;4.75;;
61322;SDS011;47203;48.428;11.974;2023-05-19T05:44:50;9.57;;;4.82;;
61322;SDS011;47203;48.428;11.974;2023-05-19T05:46:56;7.82;;;4.20;;
61322;SDS011;47203;48.428;11.974;2023-05-19T05:49:02;7.38;;;4.38;;
61322;SDS011;47203;48.428;11.974;2023-05-19T05:51:07;7.72;;;4.65;;
61322;SDS011;47203;48.428;11.974;2023-05-19T05:53:14;6.70;;;4.40;;
61322;SDS011;47203;48.428;11.974;2023-05-19T05:55:26;7.63;;;4.93;;
61322;SDS011;47203;48.428;11.974;2023-05-19T05:57:36;9.00;;;4.97;;
61322;SDS011;47203;48.428;11.974;2023-05-19T05:59:42;9.07;;;4.88;;
61322;SDS011;47203;48.428;11.974;2023-05-19T06:01:49;9.10;;;4.15;;
61322;SDS011;47203;48.428;11.974;2023-05-19T06:03:54;10.40;;;4.70;;
61322;SDS011;47203;48.428;11.974;2023-05-19T06:06:00;7.05;;;4.55;;
61322;SDS011;47203;48.428;11.974;2023-05-19T06:08:05;8.35;;;4.25;;
61322;SDS011;47203;48.428;11.974;2023-05-19T06:10:10;6.90;;;4.25;;
61322;SDS011;47203;48.428;11.974;2023-05-19T06:12:15;7.43;;;4.45;;
61322;SDS011;47203;48.428;11.974;2023-05-19T06:14:25;8.32;;;3.95;;
61322;SDS011;47203;48.428;11.974;2023-05-19T06:16:57;7.38;;;4.03;;
61322;SDS011;47203;48.428;11.974;2023-05-19T06:19:03;8.32;;;4.13;;
61322;SDS011;47203;48.428;11.974;2023-05-19T06:21:08;8.07;;;4.60;;
61322;SDS011;47203;48.428;11.974;2023-05-19T06:23:15;7.65;;;4.35;;
61322;SDS011;47203;48.428;11.974;2023-05-19T06:25:20;10.65;;;4.43;;
61322;SDS011;47203;48.428;11.974;2023-05-19T06:27:26;7.40;;;3.67;;
61322;SDS011;47203;48.428;11.974;2023-05-19T06:29:38;9.30;;;4.50;;
61322;SDS011;47203;48.428;11.974;2023-05-19T06:31:43;6.97;;;3.95;;
61322;SDS011;47203;48.428;11.974;2023-05-19T06:33:50;6.10;;;4.05;;
61322;SDS011;47203;48.428;11.974;2023-05-19T06:35:55;8.38;;;4.22;;
61322;SDS011;47203;48.428;11.974;2023-05-19T06:38:00;6.82;;;4.32;;
61322;SDS011;47203;48.428;11.974;2023-05-19T06:40:06;6.43;;;3.75;;
61322;SDS011;47203;48.428;11.974;2023-05-19T06:42:14;6.68;;;3.78;;
61322;SDS011;47203;48.428;11.974;2023-05-19T06:44:43;7.00;;;3.95;;
61322;SDS011;47203;48.428;11.974;2023-05-19T06:46:49;5.47;;;3.67;;
61322;SDS011;47203;48.428;11.974;2023-05-19T06:48:54;5.88;;;3.72;;
61322;SDS011;47203;48.428;11.974;2023-05-19T06:51:00;7.32;;;4.05;;
61322;SDS011;47203;48.428;11.974;2023-05-19T06:53:07;5.85;;;3.70;;
61322;SDS011;47203;48.428;11.974;2023-05-19T06:55:12;5.60;;;3.60;;
61322;SDS011;47203;48.428;11.974;2023-05-19T06:57:18;5.25;;;3.78;;
61322;SDS011;47203;48.428;11.974;2023-05-19T06:59:23;13.55;;;4.43;;
61322;SDS011;47203;48.428;11.974;2023-05-19T07:01:30;4.88;;;3.05;;
61322;SDS011;47203;48.428;11.974;2023-05-19T07:03:36;5.60;;;3.70;;
61322;SDS011;47203;48.428;11.974;2023-05-19T07:05:42;5.25;;;2.80;;
61322;SDS011;47203;48.428;11.974;2023-05-19T07:07:48;4.85;;;3.60;;
61322;SDS011;47203;48.428;11.974;2023-05-19T07:09:57;3.97;;;2.60;;
61322;SDS011;47203;48.428;11.974;2023-05-19T07:12:04;4.47;;;2.70;;
61322;SDS011;47203;48.428;11.974;2023-05-19T07:14:09;5.13;;;3.08;;
61322;SDS011;47203;48.428;11.974;2023-05-19T07:16:15;4.72;;;2.95;;
61322;SDS011;47203;48.428;11.974;2023-05-19T07:18:22;3.97;;;2.72;;
61322;SDS011;47203;48.428;11.974;2023-05-19T07:20:27;5.90;;;3.03;;
61322;SDS011;47203;48.428;11.974;2023-05-19T07:22:33;5.32;;;3.00;;
61322;SDS011;47203;48.428;11.974;2023-05-19T07:24:40;4.18;;;2.95;;
61322;SDS011;47203;48.428;11.974;2023-05-19T07:26:44;5.30;;;2.55;;
61322;SDS011;47203;48.428;11.974;2023-05-19T07:28:50;4.43;;;2.70;;
61322;SDS011;47203;48.428;11.974;2023-05-19T07:30:55;4.88;;;2.97;;
61322;SDS011;47203;48.428;11.974;2023-05-19T07:33:00;5.07;;;3.25;;
61322;SDS011;47203;48.428;11.974;2023-05-19T07:35:08;3.60;;;2.70;;
61322;SDS011;47203;48.428;11.974;2023-05-19T07:37:12;5.57;;;2.67;;
61322;SDS011;47203;48.428;11.974;2023-05-19T07:39:17;5.68;;;3.20;;
61322;SDS011;47203;48.428;11.974;2023-05-19T07:41:22;4.40;;;2.75;;
61322;SDS011;47203;48.428;11.974;2023-05-19T07:43:28;4.90;;;2.95;;
61322;SDS011;47203;48.428;11.974;2023-05-19T07:45:33;6.05;;;3.25;;
61322;SDS011;47203;48.428;11.974;2023-05-19T07:47:38;4.57;;;2.80;;
61322;SDS011;47203;48.428;11.974;2023-05-19T07:49:43;4.90;;;3.08;;
61322;SDS011;47203;48.428;11.974;2023-05-19T07:51:54;5.20;;;2.65;;
61322;SDS011;47203;48.428;11.974;2023-05-19T07:53:59;5.82;;;3.33;;
61322;SDS011;47203;48.428;11.974;2023-05-19T07:56:04;6.45;;;3.25;;
61322;SDS011;47203;48.428;11.974;2023-05-19T07:58:09;6.70;;;3.72;;
61322;SDS011;47203;48.428;11.974;2023-05-19T08:00:14;6.78;;;4.60;;
61322;SDS011;47203;48.428;11.974;2023-05-19T08:02:20;6.18;;;3.65;;
61322;SDS011;47203;48.428;11.974;2023-05-19T08:04:25;5.38;;;2.90;;
61322;SDS011;47203;48.428;11.974;2023-05-19T08:06:30;5.10;;;3.10;;
61322;SDS011;47203;48.428;11.974;2023-05-19T08:08:38;5.25;;;2.85;;
61322;SDS011;47203;48.428;11.974;2023-05-19T08:10:44;4.32;;;2.78;;
61322;SDS011;47203;48.428;11.974;2023-05-19T08:12:49;4.60;;;2.50;;
61322;SDS011;47203;48.428;11.974;2023-05-19T08:14:54;4.90;;;2.85;;
61322;SDS011;47203;48.428;11.974;2023-05-19T08:17:02;4.47;;;3.20;;
61322;SDS011;47203;48.428;11.974;2023-05-19T08:19:07;4.82;;;3.00;;
61322;SDS011;47203;48.428;11.974;2023-05-19T08:21:13;4.10;;;2.63;;
61322;SDS011;47203;48.428;11.974;2023-05-19T08:23:18;3.78;;;2.60;;
61322;SDS011;47203;48.428;11.974;2023-05-19T08:25:26;5.32;;;3.05;;
61322;SDS011;47203;48.428;11.974;2023-05-19T08:27:31;4.30;;;2.60;;
61322;SDS011;47203;48.428;11.974;2023-05-19T08:29:36;4.35;;;3.05;;
61322;SDS011;47203;48.428;11.974;2023-05-19T08:31:41;5.60;;;2.88;;
61322;SDS011;47203;48.428;11.974;2023-05-19T08:33:47;4.25;;;2.78;;
61322;SDS011;47203;48.428;11.974;2023-05-19T08:35:51;3.92;;;2.85;;
61322;SDS011;47203;48.428;11.974;2023-05-19T08:37:58;3.45;;;2.60;;
61322;SDS011;47203;48.428;11.974;2023-05-19T08:40:03;4.68;;;2.55;;
61322;SDS011;47203;48.428;11.974;2023-05-19T08:42:12;4.38;;;3.22;;
61322;SDS011;47203;48.428;11.974;2023-05-19T08:44:17;6.18;;;3.33;;
61322;SDS011;47203;48.428;11.974;2023-05-19T08:46:23;5.95;;;2.92;;
61322;SDS011;47203;48.428;11.974;2023-05-19T08:48:29;3.92;;;2.70;;
61322;SDS011;47203;48.428;11.974;2023-05-19T08:50:34;3.60;;;2.50;;
61322;SDS011;47203;48.428;11.974;2023-05-19T08:52:46;4.65;;;2.85;;
61322;SDS011;47203;48.428;11.974;2023-05-19T08:54:59;3.50;;;2.58;;
61322;SDS011;47203;48.428;11.974;2023-05-19T08:57:07;4.85;;;2.95;;
61322;SDS011;47203;48.428;11.974;2023-05-19T08:59:15;3.55;;;2.78;;
61322;SDS011;47203;48.428;11.974;2023-05-19T09:01:22;4.40;;;3.00;;
61322;SDS011;47203;48.428;11.974;2023-05-19T09:03:27;4.10;;;2.20;;
61322;SDS011;47203;48.428;11.974;2023-05-19T09:05:33;5.35;;;3.20;;
61322;SDS011;47203;48.428;11.974;2023-05-19T09:07:38;5.53;;;3.05;;
61322;SDS011;47203;48.428;11.974;2023-05-19T09:09:43;3.78;;;2.55;;
61322;SDS011;47203;48.428;11.974;2023-05-19T09:11:49;4.10;;;2.72;;
61322;SDS011;47203;48.428;11.974;2023-05-19T09:13:54;4.07;;;2.70;;
61322;SDS011;47203;48.428;11.974;2023-05-19T09:16:02;5.38;;;3.35;;
61322;SDS011;47203;48.428;11.974;2023-05-19T09:18:07;3.63;;;2.70;;
61322;SDS011;47203;48.428;11.974;2023-05-19T09:20:13;4.05;;;3.08;;
61322;SDS011;47203;48.428;11.974;2023-05-19T09:22:20;4.40;;;3.05;;
61322;SDS011;47203;48.428;11.974;2023-05-19T09:24:26;5.10;;;3.58;;
61322;SDS011;47203;48.428;11.974;2023-05-19T09:26:35;4.40;;;3.20;;
61322;SDS011;47203;48.428;11.974;2023-05-19T09:28:41;5.07;;;2.92;;
61322;SDS011;47203;48.428;11.974;2023-05-19T09:30:46;5.40;;;3.40;;
61322;SDS011;47203;48.428;11.974;2023-05-19T09:32:54;5.22;;;3.72;;
61322;SDS011;47203;48.428;11.974;2023-05-19T09:35:00;4.38;;;2.90;;
61322;SDS011;47203;48.428;11.974;2023-05-19T09:37:06;5.63;;;3.20;;
61322;SDS011;47203;48.428;11.974;2023-05-19T09:39:14;4.50;;;2.92;;
61322;SDS011;47203;48.428;11.974;2023-05-19T09:41:20;4.97;;;3.03;;
61322;SDS011;47203;48.428;11.974;2023-05-19T09:43:25;6.20;;;3.70;;
61322;SDS011;47203;48.428;11.974;2023-05-19T09:45:32;4.28;;;3.60;;
61322;SDS011;47203;48.428;11.974;2023-05-19T09:47:38;4.20;;;3.38;;
61322;SDS011;47203;48.428;11.974;2023-05-19T09:49:47;4.55;;;3.13;;
61322;SDS011;47203;48.428;11.974;2023-05-19T09:51:53;5.07;;;3.67;;
61322;SDS011;47203;48.428;11.974;2023-05-19T09:53:59;5.68;;;3.47;;
61322;SDS011;47203;48.428;11.974;2023-05-19T09:56:05;5.10;;;3.50;;
61322;SDS011;47203;48.428;11.974;2023-05-19T09:58:15;4.72;;;3.33;;
61322;SDS011;47203;48.428;11.974;2023-05-19T10:00:21;4.80;;;3.38;;
61322;SDS011;47203;48.428;11.974;2023-05-19T10:02:27;4.80;;;3.15;;
61322;SDS011;47203;48.428;11.974;2023-05-19T10:04:33;5.10;;;3.00;;
61322;SDS011;47203;48.428;11.974;2023-05-19T10:06:42;8.82;;;3.63;;
61322;SDS011;47203;48.428;11.974;2023-05-19T10:08:48;6.05;;;3.30;;
61322;SDS011;47203;48.428;11.974;2023-05-19T10:10:55;6.55;;;3.72;;
61322;SDS011;47203;48.428;11.974;2023-05-19T10:13:01;5.07;;;3.80;;
61322;SDS011;47203;48.428;11.974;2023-05-19T10:15:08;6.15;;;3.88;;
61322;SDS011;47203;48.428;11.974;2023-05-19T10:17:14;6.10;;;4.25;;
61322;SDS011;47203;48.428;11.974;2023-05-19T10:19:20;5.80;;;3.83;;
61322;SDS011;47203;48.428;11.974;2023-05-19T10:21:26;5.63;;;4.10;;
61322;SDS011;47203;48.428;11.974;2023-05-19T10:23:34;4.60;;;3.10;;
61322;SDS011;47203;48.428;11.974;2023-05-19T10:25:39;4.40;;;3.00;;
61322;SDS011;47203;48.428;11.974;2023-05-19T10:27:48;4.68;;;3.20;;
61322;SDS011;47203;48.428;11.974;2023-05-19T10:29:57;4.70;;;3.33;;
61322;SDS011;47203;48.428;11.974;2023-05-19T10:32:07;4.55;;;3.25;;
61322;SDS011;47203;48.428;11.974;2023-05-19T10:34:22;5.22;;;3.63;;
61322;SDS011;47203;48.428;11.974;2023-05-19T10:36:44;5.30;;;3.80;;
61322;SDS011;47203;48.428;11.974;2023-05-19T10:38:58;5.63;;;4.30;;
61322;SDS011;47203;48.428;11.974;2023-05-19T10:41:10;5.13;;;3.58;;
61322;SDS011;47203;48.428;11.974;2023-05-19T10:43:22;7.68;;;3.50;;
61322;SDS011;47203;48.428;11.974;2023-05-19T10:45:35;5.13;;;3.80;;
61322;SDS011;47203;48.428;11.974;2023-05-19T10:47:49;7.53;;;4.40;;
61322;SDS011;47203;48.428;11.974;2023-05-19T10:49:55;6.75;;;4.32;;
61322;SDS011;47203;48.428;11.974;2023-05-19T10:52:04;5.15;;;3.78;;
61322;SDS011;47203;48.428;11.974;2023-05-19T10:56:45;6.60;;;4.07;;
61322;SDS011;47203;48.428;11.974;2023-05-19T10:58:50;5.93;;;5.18;;
61322;SDS011;47203;48.428;11.974;2023-05-19T11:00:58;5.72;;;3.95;;
61322;SDS011;47203;48.428;11.974;2023-05-19T11:03:13;5.55;;;3.75;;
61322;SDS011;47203;48.428;11.974;2023-05-19T11:05:19;5.30;;;3.55;;
61322;SDS011;47203;48.428;11.974;2023-05-19T11:07:32;5.47;;;3.67;;
61322;SDS011;47203;48.428;11.974;2023-05-19T11:09:41;5.93;;;3.70;;
61322;SDS011;47203;48.428;11.974;2023-05-19T11:11:47;5.00;;;3.80;;
61322;SDS011;47203;48.428;11.974;2023-05-19T11:13:53;4.78;;;3.90;;
61322;SDS011;47203;48.428;11.974;2023-05-19T11:15:59;5.40;;;4.18;;
61322;SDS011;47203;48.428;11.974;2023-05-19T11:18:10;4.63;;;3.10;;
61322;SDS011;47203;48.428;11.974;2023-05-19T11:20:21;4.55;;;3.38;;
61322;SDS011;47203;48.428;11.974;2023-05-19T11:22:27;7.00;;;3.95;;
61322;SDS011;47203;48.428;11.974;2023-05-19T11:24:33;6.28;;;3.97;;
61322;SDS011;47203;48.428;11.974;2023-05-19T11:26:43;7.30;;;4.20;;
61322;SDS011;47203;48.428;11.974;2023-05-19T11:28:49;4.47;;;3.60;;
61322;SDS011;47203;48.428;11.974;2023-05-19T11:30:55;6.07;;;3.97;;
61322;SDS011;47203;48.428;11.974;2023-05-19T11:33:03;5.18;;;3.60;;
61322;SDS011;47203;48.428;11.974;2023-05-19T11:35:08;5.10;;;3.30;;
61322;SDS011;47203;48.428;11.974;2023-05-19T11:37:13;6.93;;;3.28;;
61322;SDS011;47203;48.428;11.974;2023-05-19T11:39:20;6.07;;;3.90;;
61322;SDS011;47203;48.428;11.974;2023-05-19T11:41:25;5.05;;;2.97;;
61322;SDS011;47203;48.428;11.974;2023-05-19T11:43:34;4.38;;;3.53;;
61322;SDS011;47203;48.428;11.974;2023-05-19T11:45:39;4.00;;;3.38;;
61322;SDS011;47203;48.428;11.974;2023-05-19T11:47:45;5.13;;;2.60;;
61322;SDS011;47203;48.428;11.974;2023-05-19T11:50:02;4.43;;;2.88;;
61322;SDS011;47203;48.428;11.974;2023-05-19T11:52:08;5.90;;;3.20;;
61322;SDS011;47203;48.428;11.974;2023-05-19T11:54:13;4.28;;;3.05;;
61322;SDS011;47203;48.428;11.974;2023-05-19T11:56:18;3.60;;;2.83;;
61322;SDS011;47203;48.428;11.974;2023-05-19T11:58:23;4.72;;;2.78;;
61322;SDS011;47203;48.428;11.974;2023-05-19T12:00:33;4.93;;;2.70;;
61322;SDS011;47203;48.428;11.974;2023-05-19T12:02:41;4.55;;;3.00;;
61322;SDS011;47203;48.428;11.974;2023-05-19T12:04:46;3.90;;;3.28;;
61322;SDS011;47203;48.428;11.974;2023-05-19T12:06:52;4.05;;;2.47;;
61322;SDS011;47203;48.428;11.974;2023-05-19T12:08:57;4.03;;;3.30;;
61322;SDS011;47203;48.428;11.974;2023-05-19T12:11:02;3.92;;;2.70;;
61322;SDS011;47203;48.428;11.974;2023-05-19T12:13:08;5.40;;;2.53;;
61322;SDS011;47203;48.428;11.974;2023-05-19T12:15:13;4.60;;;2.60;;
61322;SDS011;47203;48.428;11.974;2023-05-19T12:17:22;4.35;;;2.88;;
61322;SDS011;47203;48.428;11.974;2023-05-19T12:19:27;3.40;;;2.60;;
61322;SDS011;47203;48.428;11.974;2023-05-19T12:21:32;3.78;;;2.75;;
61322;SDS011;47203;48.428;11.974;2023-05-19T12:23:38;5.07;;;2.78;;
61322;SDS011;47203;48.428;11.974;2023-05-19T12:25:43;3.67;;;2.78;;
61322;SDS011;47203;48.428;11.974;2023-05-19T12:27:49;5.47;;;2.90;;
61322;SDS011;47203;48.428;11.974;2023-05-19T12:29:58;6.53;;;3.45;;
61322;SDS011;47203;48.428;11.974;2023-05-19T12:32:03;4.78;;;3.10;;
61322;SDS011;47203;48.428;11.974;2023-05-19T12:34:13;5.13;;;3.00;;
61322;SDS011;47203;48.428;11.974;2023-05-19T12:36:19;7.18;;;2.95;;
61322;SDS011;47203;48.428;11.974;2023-05-19T12:38:27;5.35;;;3.17;;
61322;SDS011;47203;48.428;11.974;2023-05-19T12:40:32;4.28;;;2.75;;